sensor_id;sensor_type;location;lat;lon;timestamp;temperature;humidity
74617;DHT22;63123;50.906;4.198;2023-03-31T00:01:33;16.80;61.10
74617;DHT22;63123;50.906;4.198;2023-03-31T00:03:59;16.80;61.20
74617;DHT22;63123;50.906;4.198;2023-03-31T00:06:35;16.80;61.80
74617;DHT22;63123;50.906;4.198;2023-03-31T00:09:11;16.80;61.10
74617;DHT22;63123;50.906;4.198;2023-03-31T00:11:38;16.80;61.20
74617;DHT22;63123;50.906;4.198;2023-03-31T00:14:04;16.80;61.20
74617;DHT22;63123;50.906;4.198;2023-03-31T00:16:33;16.80;61.20
74617;DHT22;63123;50.906;4.198;2023-03-31T00:18:58;16.80;61.20
74617;DHT22;63123;50.906;4.198;2023-03-31T00:21:27;16.80;61.20
74617;DHT22;63123;50.906;4.198;2023-03-31T00:23:56;16.80;61.20
74617;DHT22;63123;50.906;4.198;2023-03-31T00:26:22;16.80;61.20
74617;DHT22;63123;50.906;4.198;2023-03-31T00:28:49;16.80;61.20
74617;DHT22;63123;50.906;4.198;2023-03-31T00:31:15;16.80;61.20
74617;DHT22;63123;50.906;4.198;2023-03-31T00:33:41;16.80;61.30
74617;DHT22;63123;50.906;4.198;2023-03-31T00:36:07;16.80;61.30
74617;DHT22;63123;50.906;4.198;2023-03-31T00:38:33;16.80;61.20
74617;DHT22;63123;50.906;4.198;2023-03-31T00:41:02;16.80;61.30
74617;DHT22;63123;50.906;4.198;2023-03-31T00:43:29;16.80;61.20
74617;DHT22;63123;50.906;4.198;2023-03-31T00:46:02;16.80;61.30
74617;DHT22;63123;50.906;4.198;2023-03-31T00:48:30;16.80;61.20
74617;DHT22;63123;50.906;4.198;2023-03-31T00:50:58;16.80;61.30
74617;DHT22;63123;50.906;4.198;2023-03-31T00:53:28;16.80;61.30
74617;DHT22;63123;50.906;4.198;2023-03-31T00:55:56;16.80;61.30
74617;DHT22;63123;50.906;4.198;2023-03-31T00:58:24;16.80;61.30
74617;DHT22;63123;50.906;4.198;2023-03-31T01:00:54;16.80;61.30
74617;DHT22;63123;50.906;4.198;2023-03-31T01:03:21;16.80;61.30
74617;DHT22;63123;50.906;4.198;2023-03-31T01:05:49;16.80;61.30
74617;DHT22;63123;50.906;4.198;2023-03-31T01:08:18;16.80;61.30
74617;DHT22;63123;50.906;4.198;2023-03-31T01:10:48;16.80;61.30
74617;DHT22;63123;50.906;4.198;2023-03-31T01:13:16;16.80;61.40
74617;DHT22;63123;50.906;4.198;2023-03-31T01:15:43;16.80;61.30
74617;DHT22;63123;50.906;4.198;2023-03-31T01:18:09;16.80;61.30
74617;DHT22;63123;50.906;4.198;2023-03-31T01:43:36;16.80;61.30
74617;DHT22;63123;50.906;4.198;2023-03-31T01:57:30;16.80;61.30
74617;DHT22;63123;50.906;4.198;2023-03-31T02:02:57;16.70;61.30
74617;DHT22;63123;50.906;4.198;2023-03-31T02:05:40;16.80;61.40
74617;DHT22;63123;50.906;4.198;2023-03-31T02:08:12;16.70;61.30
74617;DHT22;63123;50.906;4.198;2023-03-31T02:10:41;16.80;61.30
74617;DHT22;63123;50.906;4.198;2023-03-31T02:13:10;16.80;61.40
74617;DHT22;63123;50.906;4.198;2023-03-31T02:15:40;16.80;61.30
74617;DHT22;63123;50.906;4.198;2023-03-31T02:18:09;16.80;61.40
74617;DHT22;63123;50.906;4.198;2023-03-31T02:20:39;16.80;61.30
74617;DHT22;63123;50.906;4.198;2023-03-31T02:23:08;16.80;61.30
74617;DHT22;63123;50.906;4.198;2023-03-31T02:25:39;16.80;61.30
74617;DHT22;63123;50.906;4.198;2023-03-31T02:28:12;16.80;61.30
74617;DHT22;63123;50.906;4.198;2023-03-31T02:30:47;16.70;61.20
74617;DHT22;63123;50.906;4.198;2023-03-31T02:33:15;16.80;61.30
74617;DHT22;63123;50.906;4.198;2023-03-31T02:35:42;16.80;61.30
74617;DHT22;63123;50.906;4.198;2023-03-31T02:38:07;16.80;61.30
74617;DHT22;63123;50.906;4.198;2023-03-31T02:40:33;16.80;61.30
74617;DHT22;63123;50.906;4.198;2023-03-31T02:43:00;16.80;61.30
74617;DHT22;63123;50.906;4.198;2023-03-31T02:45:52;16.80;61.30
74617;DHT22;63123;50.906;4.198;2023-03-31T02:48:22;16.80;61.30
74617;DHT22;63123;50.906;4.198;2023-03-31T03:16:06;16.70;61.30
74617;DHT22;63123;50.906;4.198;2023-03-31T03:18:33;16.80;61.30
74617;DHT22;63123;50.906;4.198;2023-03-31T03:20:58;16.70;61.30
74617;DHT22;63123;50.906;4.198;2023-03-31T03:23:24;16.80;61.90
74617;DHT22;63123;50.906;4.198;2023-03-31T03:25:49;16.80;61.30
74617;DHT22;63123;50.906;4.198;2023-03-31T03:28:15;16.70;61.30
74617;DHT22;63123;50.906;4.198;2023-03-31T03:30:41;16.80;61.30
74617;DHT22;63123;50.906;4.198;2023-03-31T03:33:07;16.80;61.30
74617;DHT22;63123;50.906;4.198;2023-03-31T03:35:34;16.80;61.30
74617;DHT22;63123;50.906;4.198;2023-03-31T03:37:59;16.80;61.30
74617;DHT22;63123;50.906;4.198;2023-03-31T03:40:25;16.80;61.30
74617;DHT22;63123;50.906;4.198;2023-03-31T03:42:50;16.80;61.30
74617;DHT22;63123;50.906;4.198;2023-03-31T03:45:16;16.70;61.30
74617;DHT22;63123;50.906;4.198;2023-03-31T03:47:42;16.70;61.20
74617;DHT22;63123;50.906;4.198;2023-03-31T03:50:08;16.80;61.90
74617;DHT22;63123;50.906;4.198;2023-03-31T03:52:34;16.80;61.30
74617;DHT22;63123;50.906;4.198;2023-03-31T03:55:00;16.80;61.30
74617;DHT22;63123;50.906;4.198;2023-03-31T03:57:26;16.70;61.20
74617;DHT22;63123;50.906;4.198;2023-03-31T03:59:52;16.80;61.30
74617;DHT22;63123;50.906;4.198;2023-03-31T04:02:17;16.80;61.30
74617;DHT22;63123;50.906;4.198;2023-03-31T04:04:43;16.70;61.20
74617;DHT22;63123;50.906;4.198;2023-03-31T04:07:08;16.70;61.20
74617;DHT22;63123;50.906;4.198;2023-03-31T04:09:34;16.80;61.30
74617;DHT22;63123;50.906;4.198;2023-03-31T04:12:00;16.70;61.20
74617;DHT22;63123;50.906;4.198;2023-03-31T04:14:25;16.70;61.20
74617;DHT22;63123;50.906;4.198;2023-03-31T04:16:51;16.80;61.20
74617;DHT22;63123;50.906;4.198;2023-03-31T04:19:17;16.70;61.10
74617;DHT22;63123;50.906;4.198;2023-03-31T04:21:43;16.70;61.10
74617;DHT22;63123;50.906;4.198;2023-03-31T04:24:15;16.80;61.10
74617;DHT22;63123;50.906;4.198;2023-03-31T04:26:46;16.70;61.00
74617;DHT22;63123;50.906;4.198;2023-03-31T04:29:15;16.70;61.00
74617;DHT22;63123;50.906;4.198;2023-03-31T04:31:41;16.80;61.00
74617;DHT22;63123;50.906;4.198;2023-03-31T04:34:12;16.80;61.00
74617;DHT22;63123;50.906;4.198;2023-03-31T04:36:45;16.80;61.20
74617;DHT22;63123;50.906;4.198;2023-03-31T04:39:12;16.70;60.90
74617;DHT22;63123;50.906;4.198;2023-03-31T04:41:38;16.80;60.90
74617;DHT22;63123;50.906;4.198;2023-03-31T04:44:04;16.80;60.90
74617;DHT22;63123;50.906;4.198;2023-03-31T04:46:31;16.70;60.80
74617;DHT22;63123;50.906;4.198;2023-03-31T04:48:56;16.80;60.90
74617;DHT22;63123;50.906;4.198;2023-03-31T04:51:23;16.80;60.90
74617;DHT22;63123;50.906;4.198;2023-03-31T04:53:49;16.70;60.90
74617;DHT22;63123;50.906;4.198;2023-03-31T04:56:14;16.80;60.90
74617;DHT22;63123;50.906;4.198;2023-03-31T04:58:40;16.70;60.90
74617;DHT22;63123;50.906;4.198;2023-03-31T05:01:06;16.70;60.90
74617;DHT22;63123;50.906;4.198;2023-03-31T05:03:31;16.70;60.90
74617;DHT22;63123;50.906;4.198;2023-03-31T05:05:57;16.70;60.90
74617;DHT22;63123;50.906;4.198;2023-03-31T05:08:23;16.70;60.90
74617;DHT22;63123;50.906;4.198;2023-03-31T05:10:48;16.70;60.90
74617;DHT22;63123;50.906;4.198;2023-03-31T05:13:14;16.70;60.90
74617;DHT22;63123;50.906;4.198;2023-03-31T05:15:40;16.80;61.10
74617;DHT22;63123;50.906;4.198;2023-03-31T05:18:06;16.70;61.00
74617;DHT22;63123;50.906;4.198;2023-03-31T05:20:32;16.80;61.10
74617;DHT22;63123;50.906;4.198;2023-03-31T05:22:57;16.70;61.60
74617;DHT22;63123;50.906;4.198;2023-03-31T05:25:23;16.70;61.10
74617;DHT22;63123;50.906;4.198;2023-03-31T05:27:49;16.70;61.10
74617;DHT22;63123;50.906;4.198;2023-03-31T05:30:16;16.70;61.70
74617;DHT22;63123;50.906;4.198;2023-03-31T05:32:42;16.70;61.20
74617;DHT22;63123;50.906;4.198;2023-03-31T05:35:08;16.80;61.20
74617;DHT22;63123;50.906;4.198;2023-03-31T05:37:34;16.70;61.20
74617;DHT22;63123;50.906;4.198;2023-03-31T05:40:00;16.80;61.30
74617;DHT22;63123;50.906;4.198;2023-03-31T05:42:25;16.80;61.30
74617;DHT22;63123;50.906;4.198;2023-03-31T05:44:51;16.70;61.30
74617;DHT22;63123;50.906;4.198;2023-03-31T05:47:17;16.80;61.30
74617;DHT22;63123;50.906;4.198;2023-03-31T05:49:43;16.80;61.40
74617;DHT22;63123;50.906;4.198;2023-03-31T05:52:09;16.70;61.30
74617;DHT22;63123;50.906;4.198;2023-03-31T05:54:35;16.70;61.30
74617;DHT22;63123;50.906;4.198;2023-03-31T05:57:01;16.70;61.30
74617;DHT22;63123;50.906;4.198;2023-03-31T05:59:26;16.80;61.40
74617;DHT22;63123;50.906;4.198;2023-03-31T06:01:52;16.80;61.40
74617;DHT22;63123;50.906;4.198;2023-03-31T06:04:18;16.80;61.50
74617;DHT22;63123;50.906;4.198;2023-03-31T06:06:43;16.80;61.50
74617;DHT22;63123;50.906;4.198;2023-03-31T06:09:10;16.80;61.40
74617;DHT22;63123;50.906;4.198;2023-03-31T06:11:39;16.70;61.40
74617;DHT22;63123;50.906;4.198;2023-03-31T06:14:04;16.80;61.40
74617;DHT22;63123;50.906;4.198;2023-03-31T06:16:30;16.80;61.40
74617;DHT22;63123;50.906;4.198;2023-03-31T06:18:56;16.80;61.40
74617;DHT22;63123;50.906;4.198;2023-03-31T06:21:21;16.80;61.40
74617;DHT22;63123;50.906;4.198;2023-03-31T06:23:47;16.80;61.40
74617;DHT22;63123;50.906;4.198;2023-03-31T06:26:16;16.80;61.40
74617;DHT22;63123;50.906;4.198;2023-03-31T06:28:42;16.80;61.40
74617;DHT22;63123;50.906;4.198;2023-03-31T06:31:13;16.80;61.40
74617;DHT22;63123;50.906;4.198;2023-03-31T06:33:40;16.80;61.40
74617;DHT22;63123;50.906;4.198;2023-03-31T06:36:07;16.80;61.40
74617;DHT22;63123;50.906;4.198;2023-03-31T06:38:34;16.80;61.30
74617;DHT22;63123;50.906;4.198;2023-03-31T06:41:01;16.70;61.30
74617;DHT22;63123;50.906;4.198;2023-03-31T06:43:27;16.80;61.40
74617;DHT22;63123;50.906;4.198;2023-03-31T06:45:53;16.80;61.40
74617;DHT22;63123;50.906;4.198;2023-03-31T06:48:19;16.80;61.30
74617;DHT22;63123;50.906;4.198;2023-03-31T06:50:44;16.80;61.30
74617;DHT22;63123;50.906;4.198;2023-03-31T06:53:10;16.80;61.30
74617;DHT22;63123;50.906;4.198;2023-03-31T06:55:36;16.80;61.30
74617;DHT22;63123;50.906;4.198;2023-03-31T06:58:03;16.80;61.30
74617;DHT22;63123;50.906;4.198;2023-03-31T07:00:29;16.80;61.30
74617;DHT22;63123;50.906;4.198;2023-03-31T07:02:55;16.80;61.30
74617;DHT22;63123;50.906;4.198;2023-03-31T07:05:21;16.80;61.30
74617;DHT22;63123;50.906;4.198;2023-03-31T07:07:58;16.80;61.30
74617;DHT22;63123;50.906;4.198;2023-03-31T07:10:26;16.80;61.30
74617;DHT22;63123;50.906;4.198;2023-03-31T07:12:52;16.80;61.30
74617;DHT22;63123;50.906;4.198;2023-03-31T07:15:18;16.80;61.30
74617;DHT22;63123;50.906;4.198;2023-03-31T07:17:43;16.80;61.20
74617;DHT22;63123;50.906;4.198;2023-03-31T07:20:10;16.80;61.20
74617;DHT22;63123;50.906;4.198;2023-03-31T07:22:45;16.80;61.30
74617;DHT22;63123;50.906;4.198;2023-03-31T07:25:14;16.80;61.20
74617;DHT22;63123;50.906;4.198;2023-03-31T07:27:40;16.80;61.20
74617;DHT22;63123;50.906;4.198;2023-03-31T07:30:08;16.80;61.20
74617;DHT22;63123;50.906;4.198;2023-03-31T07:32:33;16.80;61.20
74617;DHT22;63123;50.906;4.198;2023-03-31T07:35:04;16.80;61.20
74617;DHT22;63123;50.906;4.198;2023-03-31T07:37:34;16.80;61.10
74617;DHT22;63123;50.906;4.198;2023-03-31T07:40:00;16.80;61.10
74617;DHT22;63123;50.906;4.198;2023-03-31T07:42:25;16.80;61.10
74617;DHT22;63123;50.906;4.198;2023-03-31T07:44:51;16.80;61.10
74617;DHT22;63123;50.906;4.198;2023-03-31T07:47:16;16.80;61.00
74617;DHT22;63123;50.906;4.198;2023-03-31T07:49:42;16.80;61.00
74617;DHT22;63123;50.906;4.198;2023-03-31T07:52:09;16.80;61.00
74617;DHT22;63123;50.906;4.198;2023-03-31T07:54:34;16.80;61.00
74617;DHT22;63123;50.906;4.198;2023-03-31T07:57:00;16.80;61.00
74617;DHT22;63123;50.906;4.198;2023-03-31T07:59:28;16.80;61.00
74617;DHT22;63123;50.906;4.198;2023-03-31T08:01:54;16.80;61.00
74617;DHT22;63123;50.906;4.198;2023-03-31T08:04:20;16.80;61.00
74617;DHT22;63123;50.906;4.198;2023-03-31T08:06:45;16.80;61.00
74617;DHT22;63123;50.906;4.198;2023-03-31T08:09:11;16.80;61.00
74617;DHT22;63123;50.906;4.198;2023-03-31T08:11:37;16.80;61.00
74617;DHT22;63123;50.906;4.198;2023-03-31T08:14:02;16.80;61.00
74617;DHT22;63123;50.906;4.198;2023-03-31T08:16:28;16.90;61.10
74617;DHT22;63123;50.906;4.198;2023-03-31T08:18:54;16.90;61.00
74617;DHT22;63123;50.906;4.198;2023-03-31T08:21:19;16.80;61.00
74617;DHT22;63123;50.906;4.198;2023-03-31T08:23:45;16.80;61.00
74617;DHT22;63123;50.906;4.198;2023-03-31T08:26:13;16.80;61.00
74617;DHT22;63123;50.906;4.198;2023-03-31T08:28:39;16.80;61.00
74617;DHT22;63123;50.906;4.198;2023-03-31T08:31:06;16.80;61.00
74617;DHT22;63123;50.906;4.198;2023-03-31T08:33:32;16.80;61.00
74617;DHT22;63123;50.906;4.198;2023-03-31T08:36:05;16.80;61.00
74617;DHT22;63123;50.906;4.198;2023-03-31T08:38:33;16.90;61.00
74617;DHT22;63123;50.906;4.198;2023-03-31T08:41:03;16.90;61.00
74617;DHT22;63123;50.906;4.198;2023-03-31T08:43:33;16.90;61.00
74617;DHT22;63123;50.906;4.198;2023-03-31T08:46:02;16.90;61.00
74617;DHT22;63123;50.906;4.198;2023-03-31T08:48:31;16.90;61.00
74617;DHT22;63123;50.906;4.198;2023-03-31T08:51:13;16.90;61.00
74617;DHT22;63123;50.906;4.198;2023-03-31T08:53:45;16.90;61.00
74617;DHT22;63123;50.906;4.198;2023-03-31T08:56:16;16.90;61.00
74617;DHT22;63123;50.906;4.198;2023-03-31T08:58:47;16.90;61.00
74617;DHT22;63123;50.906;4.198;2023-03-31T09:09:54;16.90;61.10
74617;DHT22;63123;50.906;4.198;2023-03-31T09:17:50;16.90;61.10
74617;DHT22;63123;50.906;4.198;2023-03-31T09:20:24;16.90;61.10
74617;DHT22;63123;50.906;4.198;2023-03-31T09:22:59;16.90;61.10
74617;DHT22;63123;50.906;4.198;2023-03-31T09:25:29;16.90;61.10
74617;DHT22;63123;50.906;4.198;2023-03-31T09:27:58;16.90;61.10
74617;DHT22;63123;50.906;4.198;2023-03-31T09:30:27;16.90;61.10
74617;DHT22;63123;50.906;4.198;2023-03-31T09:35:43;16.90;61.10
74617;DHT22;63123;50.906;4.198;2023-03-31T09:38:13;16.90;61.10
74617;DHT22;63123;50.906;4.198;2023-03-31T09:40:40;16.90;61.20
74617;DHT22;63123;50.906;4.198;2023-03-31T09:45:38;16.90;61.10
74617;DHT22;63123;50.906;4.198;2023-03-31T09:48:09;16.90;61.10
74617;DHT22;63123;50.906;4.198;2023-03-31T09:50:43;16.90;61.10
74617;DHT22;63123;50.906;4.198;2023-03-31T09:53:15;16.90;61.10
74617;DHT22;63123;50.906;4.198;2023-03-31T09:55:44;16.90;61.10
74617;DHT22;63123;50.906;4.198;2023-03-31T09:58:15;16.90;61.10
74617;DHT22;63123;50.906;4.198;2023-03-31T10:00:43;16.90;61.00
74617;DHT22;63123;50.906;4.198;2023-03-31T10:03:21;16.90;61.00
74617;DHT22;63123;50.906;4.198;2023-03-31T10:05:50;16.90;61.00
74617;DHT22;63123;50.906;4.198;2023-03-31T10:13:18;16.90;60.90
74617;DHT22;63123;50.906;4.198;2023-03-31T10:15:44;16.90;61.00
74617;DHT22;63123;50.906;4.198;2023-03-31T10:18:14;16.90;60.90
74617;DHT22;63123;50.906;4.198;2023-03-31T10:20:51;16.90;60.90
74617;DHT22;63123;50.906;4.198;2023-03-31T10:23:29;16.90;60.90
74617;DHT22;63123;50.906;4.198;2023-03-31T10:25:56;16.90;60.90
74617;DHT22;63123;50.906;4.198;2023-03-31T10:28:23;16.90;60.80
74617;DHT22;63123;50.906;4.198;2023-03-31T10:30:54;16.90;60.90
74617;DHT22;63123;50.906;4.198;2023-03-31T10:33:29;16.90;60.80
74617;DHT22;63123;50.906;4.198;2023-03-31T10:36:20;16.90;60.80
74617;DHT22;63123;50.906;4.198;2023-03-31T10:38:47;16.90;60.80
74617;DHT22;63123;50.906;4.198;2023-03-31T10:41:26;16.90;60.80
74617;DHT22;63123;50.906;4.198;2023-03-31T10:43:54;16.90;60.70
74617;DHT22;63123;50.906;4.198;2023-03-31T10:46:20;16.90;60.60
74617;DHT22;63123;50.906;4.198;2023-03-31T10:51:55;16.90;61.30
74617;DHT22;63123;50.906;4.198;2023-03-31T10:54:22;16.90;60.60
74617;DHT22;63123;50.906;4.198;2023-03-31T10:56:55;16.90;60.70
74617;DHT22;63123;50.906;4.198;2023-03-31T10:59:28;16.90;60.70
74617;DHT22;63123;50.906;4.198;2023-03-31T11:10:36;16.90;60.70
74617;DHT22;63123;50.906;4.198;2023-03-31T11:13:21;16.90;60.70
74617;DHT22;63123;50.906;4.198;2023-03-31T11:15:55;16.90;60.70
74617;DHT22;63123;50.906;4.198;2023-03-31T11:23:42;17.00;60.80
74617;DHT22;63123;50.906;4.198;2023-03-31T11:26:13;16.90;60.80
74617;DHT22;63123;50.906;4.198;2023-03-31T11:31:38;16.90;60.70
74617;DHT22;63123;50.906;4.198;2023-03-31T11:34:12;16.90;60.70
74617;DHT22;63123;50.906;4.198;2023-03-31T11:36:51;16.90;60.70
74617;DHT22;63123;50.906;4.198;2023-03-31T11:42:15;16.90;60.70
74617;DHT22;63123;50.906;4.198;2023-03-31T11:44:49;16.90;60.70
74617;DHT22;63123;50.906;4.198;2023-03-31T11:47:18;16.90;60.60
74617;DHT22;63123;50.906;4.198;2023-03-31T11:49:50;16.90;60.60
74617;DHT22;63123;50.906;4.198;2023-03-31T11:52:22;16.90;60.60
74617;DHT22;63123;50.906;4.198;2023-03-31T11:59:59;16.90;60.50
74617;DHT22;63123;50.906;4.198;2023-03-31T12:02:58;16.90;60.60
74617;DHT22;63123;50.906;4.198;2023-03-31T12:05:27;16.90;60.60
74617;DHT22;63123;50.906;4.198;2023-03-31T12:08:06;16.90;60.60
74617;DHT22;63123;50.906;4.198;2023-03-31T12:10:37;16.90;60.60
74617;DHT22;63123;50.906;4.198;2023-03-31T12:13:29;16.90;60.60
74617;DHT22;63123;50.906;4.198;2023-03-31T12:19:10;16.90;60.70
74617;DHT22;63123;50.906;4.198;2023-03-31T12:21:42;16.90;60.70
74617;DHT22;63123;50.906;4.198;2023-03-31T12:24:12;16.90;60.70
74617;DHT22;63123;50.906;4.198;2023-03-31T12:29:37;16.90;60.70
74617;DHT22;63123;50.906;4.198;2023-03-31T12:32:19;16.90;60.80
74617;DHT22;63123;50.906;4.198;2023-03-31T12:34:53;16.90;60.80
74617;DHT22;63123;50.906;4.198;2023-03-31T12:46:51;16.90;60.80
74617;DHT22;63123;50.906;4.198;2023-03-31T12:57:03;16.90;60.80
74617;DHT22;63123;50.906;4.198;2023-03-31T12:59:33;16.90;60.80
74617;DHT22;63123;50.906;4.198;2023-03-31T13:04:40;16.90;60.70
74617;DHT22;63123;50.906;4.198;2023-03-31T13:09:47;16.90;60.60
74617;DHT22;63123;50.906;4.198;2023-03-31T13:12:15;16.90;60.60
74617;DHT22;63123;50.906;4.198;2023-03-31T13:14:47;16.90;60.50
74617;DHT22;63123;50.906;4.198;2023-03-31T13:17:28;16.90;60.40
74617;DHT22;63123;50.906;4.198;2023-03-31T13:19:56;16.90;60.30
74617;DHT22;63123;50.906;4.198;2023-03-31T13:22:39;16.90;60.40
74617;DHT22;63123;50.906;4.198;2023-03-31T13:33:20;16.90;60.00
74617;DHT22;63123;50.906;4.198;2023-03-31T13:41:29;16.90;60.00
74617;DHT22;63123;50.906;4.198;2023-03-31T13:44:27;16.90;60.00
74617;DHT22;63123;50.906;4.198;2023-03-31T13:47:30;16.90;59.80
74617;DHT22;63123;50.906;4.198;2023-03-31T14:01:38;16.90;59.70
74617;DHT22;63123;50.906;4.198;2023-03-31T14:07:08;16.90;59.70
74617;DHT22;63123;50.906;4.198;2023-03-31T14:09:41;16.90;59.80
74617;DHT22;63123;50.906;4.198;2023-03-31T14:14:58;16.90;59.70
74617;DHT22;63123;50.906;4.198;2023-03-31T14:17:27;16.90;59.70
74617;DHT22;63123;50.906;4.198;2023-03-31T14:19:59;16.90;59.70
74617;DHT22;63123;50.906;4.198;2023-03-31T14:25:49;16.90;59.70
74617;DHT22;63123;50.906;4.198;2023-03-31T14:31:15;16.90;59.70
74617;DHT22;63123;50.906;4.198;2023-03-31T14:33:49;16.90;59.70
74617;DHT22;63123;50.906;4.198;2023-03-31T14:39:09;16.90;59.90
74617;DHT22;63123;50.906;4.198;2023-03-31T14:41:36;16.90;60.00
74617;DHT22;63123;50.906;4.198;2023-03-31T14:44:04;16.90;60.00
74617;DHT22;63123;50.906;4.198;2023-03-31T14:46:35;16.90;60.00
74617;DHT22;63123;50.906;4.198;2023-03-31T14:49:14;16.90;60.00
74617;DHT22;63123;50.906;4.198;2023-03-31T14:51:43;16.90;60.00
74617;DHT22;63123;50.906;4.198;2023-03-31T14:54:16;16.90;60.10
74617;DHT22;63123;50.906;4.198;2023-03-31T14:56:44;16.90;60.10
74617;DHT22;63123;50.906;4.198;2023-03-31T14:59:20;16.90;60.00
74617;DHT22;63123;50.906;4.198;2023-03-31T15:01:48;16.90;60.20
74617;DHT22;63123;50.906;4.198;2023-03-31T15:04:18;16.90;60.10
74617;DHT22;63123;50.906;4.198;2023-03-31T15:06:45;16.90;60.20
74617;DHT22;63123;50.906;4.198;2023-03-31T15:09:18;16.80;60.10
74617;DHT22;63123;50.906;4.198;2023-03-31T15:11:46;16.90;60.20
74617;DHT22;63123;50.906;4.198;2023-03-31T15:14:12;16.90;60.20
74617;DHT22;63123;50.906;4.198;2023-03-31T15:16:41;16.90;60.20
74617;DHT22;63123;50.906;4.198;2023-03-31T15:19:16;16.90;60.20
74617;DHT22;63123;50.906;4.198;2023-03-31T15:21:44;16.90;60.20
74617;DHT22;63123;50.906;4.198;2023-03-31T15:24:13;16.90;60.20
74617;DHT22;63123;50.906;4.198;2023-03-31T15:26:56;16.90;60.20
74617;DHT22;63123;50.906;4.198;2023-03-31T15:29:45;16.90;60.20
74617;DHT22;63123;50.906;4.198;2023-03-31T15:32:21;16.90;60.20
74617;DHT22;63123;50.906;4.198;2023-03-31T15:34:49;16.90;60.20
74617;DHT22;63123;50.906;4.198;2023-03-31T15:37:23;16.90;60.20
74617;DHT22;63123;50.906;4.198;2023-03-31T15:39:55;16.90;60.20
74617;DHT22;63123;50.906;4.198;2023-03-31T15:42:22;16.90;60.30
74617;DHT22;63123;50.906;4.198;2023-03-31T15:47:48;16.90;60.20
74617;DHT22;63123;50.906;4.198;2023-03-31T15:50:15;16.90;60.30
74617;DHT22;63123;50.906;4.198;2023-03-31T15:52:59;16.90;60.30
74617;DHT22;63123;50.906;4.198;2023-03-31T15:55:38;16.90;60.30
74617;DHT22;63123;50.906;4.198;2023-03-31T15:58:05;16.90;60.40
74617;DHT22;63123;50.906;4.198;2023-03-31T16:02:57;16.90;60.40
74617;DHT22;63123;50.906;4.198;2023-03-31T16:05:48;16.80;60.40
74617;DHT22;63123;50.906;4.198;2023-03-31T16:08:46;16.90;60.40
74617;DHT22;63123;50.906;4.198;2023-03-31T16:11:16;16.90;60.50
74617;DHT22;63123;50.906;4.198;2023-03-31T16:13:47;16.90;60.70
74617;DHT22;63123;50.906;4.198;2023-03-31T16:16:17;16.90;60.60
74617;DHT22;63123;50.906;4.198;2023-03-31T16:18:48;16.90;60.60
74617;DHT22;63123;50.906;4.198;2023-03-31T16:21:20;16.90;60.60
74617;DHT22;63123;50.906;4.198;2023-03-31T16:23:51;16.90;60.70
74617;DHT22;63123;50.906;4.198;2023-03-31T16:26:22;16.90;60.70
74617;DHT22;63123;50.906;4.198;2023-03-31T16:28:52;16.90;60.70
74617;DHT22;63123;50.906;4.198;2023-03-31T16:33:59;16.90;60.70
74617;DHT22;63123;50.906;4.198;2023-03-31T16:36:25;16.90;60.80
74617;DHT22;63123;50.906;4.198;2023-03-31T16:38:52;16.90;60.80
74617;DHT22;63123;50.906;4.198;2023-03-31T16:41:22;16.90;60.80
74617;DHT22;63123;50.906;4.198;2023-03-31T16:43:47;16.90;60.80
74617;DHT22;63123;50.906;4.198;2023-03-31T16:46:17;16.90;60.80
74617;DHT22;63123;50.906;4.198;2023-03-31T16:48:42;16.90;60.80
74617;DHT22;63123;50.906;4.198;2023-03-31T16:51:08;16.90;60.80
74617;DHT22;63123;50.906;4.198;2023-03-31T16:53:34;16.90;60.90
74617;DHT22;63123;50.906;4.198;2023-03-31T16:56:01;16.90;60.90
74617;DHT22;63123;50.906;4.198;2023-03-31T16:58:27;16.80;60.80
74617;DHT22;63123;50.906;4.198;2023-03-31T17:00:54;16.80;60.80
74617;DHT22;63123;50.906;4.198;2023-03-31T17:03:20;16.90;60.80
74617;DHT22;63123;50.906;4.198;2023-03-31T17:05:48;16.90;60.80
74617;DHT22;63123;50.906;4.198;2023-03-31T17:08:19;16.90;60.80
74617;DHT22;63123;50.906;4.198;2023-03-31T17:10:58;16.80;60.80
74617;DHT22;63123;50.906;4.198;2023-03-31T17:13:24;16.80;60.80
74617;DHT22;63123;50.906;4.198;2023-03-31T17:15:50;16.80;60.80
74617;DHT22;63123;50.906;4.198;2023-03-31T17:18:17;16.90;60.90
74617;DHT22;63123;50.906;4.198;2023-03-31T17:20:43;16.90;60.80
74617;DHT22;63123;50.906;4.198;2023-03-31T17:23:09;16.90;60.80
74617;DHT22;63123;50.906;4.198;2023-03-31T17:25:35;16.80;60.80
74617;DHT22;63123;50.906;4.198;2023-03-31T17:28:01;16.80;60.70
74617;DHT22;63123;50.906;4.198;2023-03-31T17:30:29;16.90;60.80
74617;DHT22;63123;50.906;4.198;2023-03-31T17:32:55;16.80;60.70
74617;DHT22;63123;50.906;4.198;2023-03-31T17:35:21;16.90;60.70
74617;DHT22;63123;50.906;4.198;2023-03-31T17:37:48;16.80;60.70
74617;DHT22;63123;50.906;4.198;2023-03-31T17:40:27;16.80;60.70
74617;DHT22;63123;50.906;4.198;2023-03-31T17:42:52;16.90;60.70
74617;DHT22;63123;50.906;4.198;2023-03-31T17:45:18;16.80;60.70
74617;DHT22;63123;50.906;4.198;2023-03-31T17:47:43;16.80;60.70
74617;DHT22;63123;50.906;4.198;2023-03-31T17:50:10;16.90;60.70
74617;DHT22;63123;50.906;4.198;2023-03-31T17:52:37;16.90;60.80
74617;DHT22;63123;50.906;4.198;2023-03-31T17:55:04;16.80;60.70
74617;DHT22;63123;50.906;4.198;2023-03-31T17:57:30;16.80;60.80
74617;DHT22;63123;50.906;4.198;2023-03-31T17:59:56;16.80;60.80
74617;DHT22;63123;50.906;4.198;2023-03-31T18:02:22;16.80;60.80
74617;DHT22;63123;50.906;4.198;2023-03-31T18:04:48;16.90;60.80
74617;DHT22;63123;50.906;4.198;2023-03-31T18:07:14;16.80;60.80
74617;DHT22;63123;50.906;4.198;2023-03-31T18:09:42;16.90;60.90
74617;DHT22;63123;50.906;4.198;2023-03-31T18:12:08;16.80;60.80
74617;DHT22;63123;50.906;4.198;2023-03-31T18:14:34;16.80;60.80
74617;DHT22;63123;50.906;4.198;2023-03-31T18:16:59;16.80;60.80
74617;DHT22;63123;50.906;4.198;2023-03-31T18:19:25;16.90;60.90
74617;DHT22;63123;50.906;4.198;2023-03-31T18:21:51;16.80;60.80
74617;DHT22;63123;50.906;4.198;2023-03-31T18:24:17;16.80;60.80
74617;DHT22;63123;50.906;4.198;2023-03-31T18:26:44;16.80;60.80
74617;DHT22;63123;50.906;4.198;2023-03-31T18:29:11;16.80;60.80
74617;DHT22;63123;50.906;4.198;2023-03-31T18:31:36;16.90;60.80
74617;DHT22;63123;50.906;4.198;2023-03-31T18:34:02;16.80;60.80
74617;DHT22;63123;50.906;4.198;2023-03-31T18:36:28;16.80;60.80
74617;DHT22;63123;50.906;4.198;2023-03-31T18:38:54;16.80;60.80
74617;DHT22;63123;50.906;4.198;2023-03-31T18:41:19;16.90;60.90
74617;DHT22;63123;50.906;4.198;2023-03-31T18:43:46;16.80;60.80
74617;DHT22;63123;50.906;4.198;2023-03-31T18:46:18;16.80;60.80
74617;DHT22;63123;50.906;4.198;2023-03-31T18:48:44;16.90;60.90
74617;DHT22;63123;50.906;4.198;2023-03-31T18:51:11;16.80;60.80
74617;DHT22;63123;50.906;4.198;2023-03-31T18:53:36;16.80;60.80